Thompson Ridge, New York
Current Conditions -  °F | °C
As of 8:54 AM on Tuesday 27 Jan 2015 (Local Time) from KMGJ Reporting Station
Overcast Overcast  
Wind Chill: 19°   Ceiling: 4700
Heat Index: 19°   Visibility: 10mi
Dew Point: 13°   Wind: 0mph
Humidity: 77%   Direction: NA
Pressure: 29.72"   Gusts: NA
Location:  41.57°N, 74.33°W
Report Text: KMGJ 271354Z AUTO 00000KT 10SM BKN047 OVC060 M07/M11 A2972 RMK AO2 SNB31E41 SLP071 P0000 T10721106 TSNO
Loading
Personal Weather Stations






























Interactive Weather Map New forecast layout! Learn more

10-Day Weather Forecast

Advertisements
Track Severe Weather on mobile